createdAt,value
2018-05-13T00:00:19.754Z,55.70
2018-05-13T00:01:21.563Z,56.10
2018-05-13T00:02:22.641Z,56.10
2018-05-13T00:03:24.446Z,56.30
2018-05-13T00:04:25.537Z,56.40
2018-05-13T00:05:26.593Z,56.40
2018-05-13T00:06:28.464Z,57.10
2018-05-13T00:07:29.488Z,56.70
2018-05-13T00:08:30.558Z,56.90
2018-05-13T00:09:32.371Z,57.00
2018-05-13T00:10:33.434Z,57.10
2018-05-13T00:11:35.120Z,57.20
2018-05-13T00:12:36.203Z,57.40
2018-05-13T00:13:37.282Z,57.70
2018-05-13T00:14:38.359Z,57.50
2018-05-13T00:15:39.417Z,57.50
2018-05-13T00:16:40.498Z,57.40
2018-05-13T00:17:41.547Z,57.40
2018-05-13T00:18:42.609Z,57.30
2018-05-13T00:19:43.666Z,57.70
2018-05-13T00:20:44.739Z,57.40
2018-05-13T00:21:45.800Z,57.60
2018-05-13T00:22:46.903Z,57.70
2018-05-13T00:23:47.975Z,58.10
2018-05-13T00:24:49.036Z,58.30
2018-05-13T00:25:50.094Z,58.30
2018-05-13T00:26:51.146Z,58.20
2018-05-13T00:27:52.212Z,58.90
2018-05-13T00:28:54.011Z,58.30
2018-05-13T00:29:55.074Z,58.30
2018-05-13T00:30:56.134Z,58.30
2018-05-13T00:31:57.209Z,58.30
2018-05-13T00:32:58.315Z,58.30
2018-05-13T00:33:59.387Z,58.30
2018-05-13T00:35:00.450Z,58.30
2018-05-13T00:36:02.256Z,58.30
2018-05-13T00:37:03.327Z,58.20
2018-05-13T00:38:05.145Z,58.30
2018-05-13T00:39:06.223Z,58.30
2018-05-13T00:40:07.328Z,58.30
2018-05-13T00:41:08.391Z,59.00
2018-05-13T00:42:09.458Z,59.10
2018-05-13T00:43:10.539Z,58.30
2018-05-13T00:44:12.350Z,58.20
2018-05-13T00:45:13.423Z,58.20
2018-05-13T00:46:14.472Z,58.30
2018-05-13T00:47:15.546Z,58.30
2018-05-13T00:48:16.630Z,58.30
2018-05-13T00:49:17.697Z,58.30
2018-05-13T00:50:18.755Z,58.30
2018-05-13T00:51:19.839Z,58.80
2018-05-13T00:52:20.907Z,58.60
2018-05-13T00:53:21.967Z,58.60
2018-05-13T00:54:35.451Z,58.80
2018-05-13T00:55:36.476Z,59.10
2018-05-13T00:56:37.549Z,59.10
2018-05-13T00:57:39.366Z,59.00
2018-05-13T00:58:40.432Z,59.10
2018-05-13T00:59:42.260Z,59.20
2018-05-13T01:00:43.358Z,59.30
2018-05-13T01:01:44.428Z,59.40
2018-05-13T01:02:45.532Z,59.30
2018-05-13T01:03:47.352Z,59.70
2018-05-13T01:04:48.414Z,59.80
2018-05-13T01:05:49.468Z,59.80
2018-05-13T01:06:50.551Z,59.80
2018-05-13T01:07:51.623Z,60.00
2018-05-13T01:08:52.696Z,60.00
2018-05-13T01:09:53.762Z,60.20
2018-05-13T01:10:54.832Z,60.30
2018-05-13T01:11:55.906Z,60.40
2018-05-13T01:12:57.007Z,60.40
2018-05-13T01:13:58.078Z,60.50
2018-05-13T01:14:59.863Z,60.40
2018-05-13T01:16:00.936Z,60.60
2018-05-13T01:17:02.775Z,60.50
2018-05-13T01:18:04.601Z,60.90
2018-05-13T01:19:05.686Z,60.90
2018-05-13T01:20:07.495Z,61.00
2018-05-13T01:21:08.568Z,61.10
2018-05-13T01:22:09.657Z,61.40
2018-05-13T01:23:10.719Z,61.60
2018-05-13T01:24:11.827Z,62.30
2018-05-13T01:25:12.896Z,62.40
2018-05-13T01:26:14.707Z,62.30
2018-05-13T01:27:15.782Z,62.40
2018-05-13T01:28:16.868Z,62.20
2018-05-13T01:29:17.950Z,62.30
2018-05-13T01:30:19.042Z,62.20
2018-05-13T01:31:20.113Z,62.30
2018-05-13T01:32:21.188Z,63.00
2018-05-13T01:33:22.250Z,62.90
2018-05-13T01:34:24.051Z,62.80
2018-05-13T01:35:25.108Z,62.80
2018-05-13T01:36:26.176Z,62.50
2018-05-13T01:37:27.268Z,62.60
2018-05-13T01:38:28.333Z,62.80
2018-05-13T01:39:30.147Z,62.20
2018-05-13T01:40:31.220Z,62.20
2018-05-13T01:41:32.271Z,63.10
2018-05-13T01:42:33.351Z,63.00
2018-05-13T01:43:34.422Z,62.70
2018-05-13T01:44:35.509Z,63.00
2018-05-13T01:45:36.587Z,63.30
2018-05-13T01:46:38.390Z,62.90
2018-05-13T01:47:39.460Z,62.90
2018-05-13T01:48:41.267Z,62.80
2018-05-13T01:49:42.367Z,62.90
2018-05-13T01:50:43.423Z,63.20
2018-05-13T01:51:44.515Z,63.20
2018-05-13T01:52:46.316Z,63.70
2018-05-13T01:53:47.431Z,63.70
2018-05-13T01:54:48.499Z,64.20
2018-05-13T01:55:49.575Z,64.10
2018-05-13T01:56:50.643Z,63.90
2018-05-13T01:57:51.701Z,64.40
2018-05-13T01:58:52.748Z,64.80
2018-05-13T01:59:54.560Z,64.30
2018-05-13T02:00:55.634Z,64.30
2018-05-13T02:01:57.432Z,64.10
2018-05-13T02:02:58.493Z,64.10
2018-05-13T02:04:00.296Z,64.30
2018-05-13T02:05:01.372Z,64.30
2018-05-13T02:06:02.455Z,64.60
2018-05-13T02:07:03.526Z,64.40
2018-05-13T02:08:04.632Z,65.00
2018-05-13T02:09:05.696Z,65.00
2018-05-13T02:10:06.788Z,64.90
2018-05-13T02:11:07.862Z,65.10
2018-05-13T02:12:08.960Z,64.60
2018-05-13T02:13:10.013Z,64.70
2018-05-13T02:14:11.083Z,64.70
2018-05-13T02:15:12.175Z,64.80
2018-05-13T02:16:13.241Z,64.70
2018-05-13T02:17:15.042Z,64.20
2018-05-13T02:18:16.136Z,64.40
2018-05-13T02:19:17.923Z,64.20
2018-05-13T02:20:19.010Z,64.20
2018-05-13T02:21:20.804Z,63.70
2018-05-13T02:22:21.855Z,63.70
2018-05-13T02:23:22.944Z,63.80
2018-05-13T02:24:24.089Z,64.50
2018-05-13T02:25:25.079Z,63.50
2018-05-13T02:26:26.879Z,63.40
2018-05-13T02:27:27.938Z,63.50
2018-05-13T02:28:29.033Z,63.60
2018-05-13T02:29:30.092Z,63.20
2018-05-13T02:30:31.211Z,63.20
2018-05-13T02:31:32.287Z,63.30
2018-05-13T02:32:34.092Z,63.10
2018-05-13T02:33:35.143Z,63.10
2018-05-13T02:34:36.210Z,62.90
2018-05-13T02:35:37.292Z,63.00
2018-05-13T02:36:38.375Z,62.50
2018-05-13T02:37:40.188Z,62.80
2018-05-13T02:38:41.239Z,62.70
2018-05-13T02:39:42.304Z,62.50
2018-05-13T02:40:43.416Z,62.70
2018-05-13T02:41:44.480Z,63.00
2018-05-13T02:42:45.532Z,63.00
2018-05-13T02:43:46.599Z,63.10
2018-05-13T02:44:48.420Z,62.90
2018-05-13T02:45:49.520Z,62.90
2018-05-13T02:46:50.594Z,62.90
2018-05-13T02:47:51.695Z,62.70
2018-05-13T02:48:53.511Z,62.20
2018-05-13T02:49:55.312Z,62.30
2018-05-13T02:50:56.374Z,62.20
2018-05-13T02:51:57.453Z,62.50
2018-05-13T02:52:58.524Z,62.00
2018-05-13T02:53:59.581Z,62.20
2018-05-13T02:55:00.654Z,62.50
2018-05-13T02:56:01.745Z,62.30
2018-05-13T02:57:02.816Z,62.20
2018-05-13T02:58:03.963Z,62.40
2018-05-13T02:59:04.978Z,62.00
2018-05-13T03:00:06.039Z,62.10
2018-05-13T03:01:07.120Z,62.40
2018-05-13T03:02:08.186Z,62.00
2018-05-13T03:03:09.268Z,61.80
2018-05-13T03:04:10.345Z,61.80
2018-05-13T03:05:11.418Z,62.00
2018-05-13T03:06:12.467Z,61.90
2018-05-13T03:07:14.268Z,61.90
2018-05-13T03:08:15.359Z,61.90
2018-05-13T03:09:16.436Z,62.10
2018-05-13T03:10:18.271Z,62.10
2018-05-13T03:11:19.372Z,62.10
2018-05-13T03:12:20.418Z,62.20
2018-05-13T03:13:21.476Z,62.40
2018-05-13T03:14:22.571Z,62.30
2018-05-13T03:15:23.637Z,62.40
2018-05-13T03:16:24.702Z,62.40
2018-05-13T03:17:25.774Z,62.40
2018-05-13T03:18:27.583Z,62.50
2018-05-13T03:19:28.658Z,62.50
2018-05-13T03:20:29.723Z,62.50
2018-05-13T03:21:30.840Z,62.50
2018-05-13T03:22:31.899Z,62.40
2018-05-13T03:23:32.997Z,62.10
2018-05-13T03:24:34.083Z,62.20
2018-05-13T03:25:35.138Z,62.00
2018-05-13T03:26:36.958Z,62.00
2018-05-13T03:27:38.038Z,62.10
2018-05-13T03:28:39.099Z,63.00
2018-05-13T03:29:40.178Z,62.00
2018-05-13T03:30:41.248Z,62.00
2018-05-13T03:31:42.326Z,61.80
2018-05-13T03:32:43.387Z,62.00
2018-05-13T03:33:44.446Z,61.80
2018-05-13T03:34:45.514Z,61.80
2018-05-13T03:35:46.570Z,61.80
2018-05-13T03:36:48.367Z,62.70
2018-05-13T03:37:49.447Z,61.80
2018-05-13T03:38:51.255Z,61.80
2018-05-13T03:39:52.392Z,61.80
2018-05-13T03:40:53.464Z,61.80
2018-05-13T03:41:55.291Z,62.50
2018-05-13T03:42:56.339Z,62.50
2018-05-13T03:43:57.395Z,62.70
2018-05-13T03:44:58.447Z,62.40
2018-05-13T03:45:59.495Z,62.70
2018-05-13T03:47:00.551Z,62.60
2018-05-13T03:48:01.605Z,62.60
2018-05-13T03:49:02.679Z,62.60
2018-05-13T03:50:03.741Z,63.10
2018-05-13T03:51:04.831Z,62.70
2018-05-13T03:52:05.908Z,62.70
2018-05-13T03:53:06.976Z,62.70
2018-05-13T03:54:08.048Z,62.90
2018-05-13T03:55:09.135Z,62.90
2018-05-13T03:56:10.216Z,62.90
2018-05-13T03:57:11.291Z,62.70
2018-05-13T03:58:13.092Z,62.90
2018-05-13T03:59:14.168Z,62.90
2018-05-13T04:00:15.248Z,62.90
2018-05-13T04:01:16.312Z,62.90
2018-05-13T04:02:17.387Z,62.90
2018-05-13T04:03:18.468Z,62.70
2018-05-13T04:04:19.544Z,62.90
2018-05-13T04:05:21.343Z,63.20
2018-05-13T04:06:22.442Z,63.20
2018-05-13T04:07:23.598Z,63.20
2018-05-13T04:08:45.763Z,63.20
2018-05-13T04:09:58.992Z,63.20
2018-05-13T04:11:12.555Z,63.30
2018-05-13T04:12:25.947Z,63.50
2018-05-13T04:13:39.187Z,63.50
2018-05-13T04:14:53.326Z,63.70
2018-05-13T04:15:55.122Z,63.70
2018-05-13T04:16:56.173Z,63.70
2018-05-13T04:17:57.987Z,63.80
2018-05-13T04:18:59.061Z,63.80
2018-05-13T04:20:00.859Z,63.90
2018-05-13T04:21:01.923Z,63.80
2018-05-13T04:22:02.996Z,64.00
2018-05-13T04:23:04.062Z,64.00
2018-05-13T04:24:05.135Z,64.10
2018-05-13T04:25:06.235Z,64.00
2018-05-13T04:26:07.315Z,64.10
2018-05-13T04:27:08.377Z,64.20
2018-05-13T04:28:09.462Z,63.90
2018-05-13T04:29:10.522Z,64.10
2018-05-13T04:30:11.562Z,64.00
2018-05-13T04:31:12.622Z,63.90
2018-05-13T04:32:13.686Z,64.00
2018-05-13T04:33:14.772Z,64.20
2018-05-13T04:34:15.859Z,64.20
2018-05-13T04:35:17.683Z,64.20
2018-05-13T04:36:18.755Z,63.90
2018-05-13T04:37:19.827Z,64.20
2018-05-13T04:38:20.895Z,65.00
2018-05-13T04:39:22.732Z,64.10
2018-05-13T04:40:23.835Z,64.20
2018-05-13T04:41:24.905Z,64.20
2018-05-13T04:42:25.962Z,64.70
2018-05-13T04:43:27.031Z,65.60
2018-05-13T04:44:28.111Z,64.60
2018-05-13T04:45:29.200Z,64.30
2018-05-13T04:46:30.265Z,64.50
2018-05-13T04:47:32.071Z,64.70
2018-05-13T04:48:33.148Z,64.80
2018-05-13T04:49:34.956Z,64.70
2018-05-13T04:50:36.029Z,64.60
2018-05-13T04:51:37.078Z,64.70
2018-05-13T04:52:38.144Z,64.80
2018-05-13T04:53:39.234Z,64.70
2018-05-13T04:54:40.310Z,64.90
2018-05-13T04:55:41.362Z,65.00
2018-05-13T04:56:42.431Z,65.00
2018-05-13T04:57:43.505Z,65.00
2018-05-13T04:58:44.577Z,65.00
2018-05-13T04:59:45.627Z,64.90
2018-05-13T05:00:47.454Z,64.90
2018-05-13T05:01:48.527Z,64.80
2018-05-13T05:02:49.575Z,64.80
2018-05-13T05:03:50.635Z,64.70
2018-05-13T05:04:51.696Z,64.50
2018-05-13T05:05:53.502Z,65.10
2018-05-13T05:06:54.571Z,64.70
2018-05-13T05:07:55.654Z,64.80
2018-05-13T05:08:56.789Z,64.70
2018-05-13T05:09:58.547Z,65.50
2018-05-13T05:10:59.610Z,65.20
2018-05-13T05:12:00.659Z,65.10
2018-05-13T05:13:01.729Z,65.20
2018-05-13T05:14:02.790Z,65.10
2018-05-13T05:15:03.861Z,65.00
2018-05-13T05:16:05.649Z,64.90
2018-05-13T05:17:06.734Z,64.90
2018-05-13T05:18:08.584Z,65.80
2018-05-13T05:19:10.399Z,65.20
2018-05-13T05:20:11.470Z,65.20
2018-05-13T05:21:12.547Z,65.20
2018-05-13T05:22:13.624Z,65.20
2018-05-13T05:23:14.700Z,65.10
2018-05-13T05:24:15.762Z,65.60
2018-05-13T05:25:16.833Z,64.80
2018-05-13T05:26:17.895Z,65.00
2018-05-13T05:27:19.029Z,65.00
2018-05-13T05:28:20.090Z,65.00
2018-05-13T05:29:21.163Z,64.90
2018-05-13T05:30:22.963Z,65.10
2018-05-13T05:31:24.020Z,65.10
2018-05-13T05:32:25.102Z,65.00
2018-05-13T05:33:26.164Z,65.00
2018-05-13T05:34:27.234Z,65.10
2018-05-13T05:35:29.039Z,65.10
2018-05-13T05:36:30.114Z,65.00
2018-05-13T05:37:31.911Z,65.00
2018-05-13T05:38:32.972Z,65.00
2018-05-13T05:39:34.040Z,64.90
2018-05-13T05:40:35.091Z,64.70
2018-05-13T05:41:36.155Z,65.20
2018-05-13T05:42:37.207Z,64.90
2018-05-13T05:43:39.024Z,64.60
2018-05-13T05:44:40.083Z,64.40
2018-05-13T05:45:41.146Z,64.70
2018-05-13T05:46:42.215Z,64.60
2018-05-13T05:47:43.299Z,64.60
2018-05-13T05:48:44.354Z,64.60
2018-05-13T05:49:45.419Z,64.50
2018-05-13T05:50:46.570Z,64.50
2018-05-13T05:51:47.651Z,64.50
2018-05-13T05:52:48.728Z,64.30
2018-05-13T05:53:49.787Z,64.50
2018-05-13T05:54:50.870Z,64.60
2018-05-13T05:55:51.916Z,64.20
2018-05-13T05:56:52.985Z,64.10
2018-05-13T05:57:54.102Z,64.20
2018-05-13T05:58:55.167Z,64.20
2018-05-13T05:59:56.248Z,64.40
2018-05-13T06:00:57.342Z,64.30
2018-05-13T06:01:58.395Z,64.10
2018-05-13T06:02:59.469Z,64.40
2018-05-13T06:04:00.519Z,64.50
2018-05-13T06:05:01.576Z,64.20
2018-05-13T06:06:02.648Z,64.00
2018-05-13T06:07:03.708Z,63.70
2018-05-13T06:08:04.772Z,63.50
2018-05-13T06:09:05.872Z,62.70
2018-05-13T06:10:06.947Z,62.60
2018-05-13T06:11:08.010Z,62.60
2018-05-13T06:12:09.183Z,62.60
2018-05-13T06:13:10.212Z,62.60
2018-05-13T06:14:11.280Z,62.60
2018-05-13T06:15:12.366Z,62.80
2018-05-13T06:16:13.447Z,62.90
2018-05-13T06:17:14.533Z,62.90
2018-05-13T06:18:15.609Z,63.00
2018-05-13T06:19:16.706Z,62.70
2018-05-13T06:20:17.774Z,63.40
2018-05-13T06:21:18.829Z,62.70
2018-05-13T06:22:19.908Z,63.10
2018-05-13T06:23:20.962Z,63.20
2018-05-13T06:24:22.764Z,63.00
2018-05-13T06:25:23.831Z,63.10
2018-05-13T06:26:24.895Z,63.00
2018-05-13T06:27:25.967Z,62.50
2018-05-13T06:28:27.758Z,62.40
2018-05-13T06:29:28.832Z,62.40
2018-05-13T06:30:29.894Z,62.70
2018-05-13T06:31:30.947Z,62.70
2018-05-13T06:32:32.104Z,62.70
2018-05-13T06:33:33.194Z,62.40
2018-05-13T06:34:34.262Z,62.70
2018-05-13T06:35:35.369Z,62.70
2018-05-13T06:36:36.412Z,62.90
2018-05-13T06:37:37.467Z,62.80
2018-05-13T06:38:38.538Z,63.00
2018-05-13T06:39:40.479Z,63.40
2018-05-13T06:40:42.306Z,63.70
2018-05-13T06:41:43.383Z,63.70
2018-05-13T06:42:47.270Z,64.00
2018-05-13T06:43:49.070Z,64.20
2018-05-13T06:44:50.136Z,64.30
2018-05-13T06:45:51.236Z,64.80
2018-05-13T06:46:52.326Z,64.50
2018-05-13T06:47:54.147Z,64.50
2018-05-13T06:48:56.156Z,64.60
2018-05-13T06:49:57.344Z,64.70
2018-05-13T06:50:58.430Z,65.10
2018-05-13T06:51:59.487Z,64.60
2018-05-13T06:53:00.551Z,64.90
2018-05-13T06:54:01.662Z,64.50
2018-05-13T06:55:02.797Z,64.90
2018-05-13T06:56:03.883Z,64.90
2018-05-13T06:57:04.947Z,65.60
2018-05-13T06:58:06.026Z,64.80
2018-05-13T06:59:07.103Z,64.80
2018-05-13T07:00:08.192Z,64.80
2018-05-13T07:01:09.275Z,65.20
2018-05-13T07:02:10.339Z,65.10
2018-05-13T07:03:11.434Z,64.80
2018-05-13T07:04:12.558Z,65.10
2018-05-13T07:05:13.644Z,64.90
2018-05-13T07:06:15.475Z,64.80
2018-05-13T07:07:16.579Z,64.90
2018-05-13T07:08:17.655Z,64.70
2018-05-13T07:09:19.462Z,64.90
2018-05-13T07:10:20.624Z,64.90
2018-05-13T07:11:21.631Z,64.50
2018-05-13T07:12:22.710Z,64.40
2018-05-13T07:13:23.770Z,64.60
2018-05-13T07:14:24.821Z,64.10
2018-05-13T07:15:25.915Z,64.10
2018-05-13T07:16:27.033Z,64.40
2018-05-13T07:17:28.066Z,64.40
2018-05-13T07:18:29.106Z,64.20
2018-05-13T07:19:30.227Z,64.40
2018-05-13T07:20:31.307Z,64.10
2018-05-13T07:21:32.375Z,64.10
2018-05-13T07:22:33.426Z,64.10
2018-05-13T07:23:35.219Z,64.00
2018-05-13T07:24:36.293Z,64.00
2018-05-13T07:25:37.425Z,64.20
2018-05-13T07:26:38.507Z,64.10
2018-05-13T07:27:39.571Z,64.40
2018-05-13T07:28:40.637Z,64.40
2018-05-13T07:29:42.497Z,64.50
2018-05-13T07:30:43.497Z,64.50
2018-05-13T07:31:44.563Z,64.30
2018-05-13T07:32:45.651Z,64.50
2018-05-13T07:33:46.720Z,64.40
2018-05-13T07:34:47.807Z,64.30
2018-05-13T07:35:48.900Z,64.50
2018-05-13T07:36:50.019Z,64.50
2018-05-13T07:37:51.094Z,64.30
2018-05-13T07:38:52.184Z,64.30
2018-05-13T07:39:53.234Z,64.10
2018-05-13T07:40:55.834Z,63.50
2018-05-13T07:41:56.924Z,63.50
2018-05-13T07:42:57.984Z,63.50
2018-05-13T07:43:59.072Z,63.50
2018-05-13T07:45:00.135Z,63.40
2018-05-13T07:46:01.184Z,63.40
2018-05-13T07:47:02.263Z,63.70
2018-05-13T07:48:04.073Z,63.50
2018-05-13T07:49:05.160Z,63.30
2018-05-13T07:50:06.956Z,63.70
2018-05-13T07:51:08.020Z,63.70
2018-05-13T07:52:09.111Z,64.00
2018-05-13T07:53:10.207Z,63.90
2018-05-13T07:54:11.301Z,64.20
2018-05-13T07:55:12.363Z,64.10
2018-05-13T07:56:13.468Z,64.00
2018-05-13T07:57:14.599Z,63.80
2018-05-13T07:58:15.695Z,64.10
2018-05-13T07:59:16.771Z,64.10
2018-05-13T08:00:18.586Z,64.50
2018-05-13T08:01:19.719Z,64.40
2018-05-13T08:02:20.794Z,64.60
2018-05-13T08:03:22.600Z,64.70
2018-05-13T08:04:23.699Z,64.70
2018-05-13T08:05:24.764Z,64.60
2018-05-13T08:06:25.897Z,64.90
2018-05-13T08:07:27.007Z,64.80
2018-05-13T08:08:28.078Z,64.90
2018-05-13T08:09:29.140Z,65.00
2018-05-13T08:10:30.944Z,64.90
2018-05-13T08:11:32.022Z,65.00
2018-05-13T08:12:33.172Z,64.70
2018-05-13T08:13:34.232Z,65.00
2018-05-13T08:14:35.332Z,64.70
2018-05-13T08:15:37.143Z,64.90
2018-05-13T08:16:39.032Z,64.90
2018-05-13T08:17:40.115Z,65.00
2018-05-13T08:18:41.183Z,65.10
2018-05-13T08:19:42.993Z,65.00
2018-05-13T08:20:44.051Z,65.00
2018-05-13T08:21:45.127Z,65.00
2018-05-13T08:22:46.240Z,65.10
2018-05-13T08:23:48.050Z,64.90
2018-05-13T08:24:49.124Z,64.90
2018-05-13T08:25:57.855Z,64.00
2018-05-13T08:26:58.982Z,64.00
2018-05-13T08:28:00.071Z,63.80
2018-05-13T08:29:01.119Z,64.00
2018-05-13T08:30:02.941Z,65.00
2018-05-13T08:31:04.022Z,64.20
2018-05-13T08:32:05.182Z,65.10
2018-05-13T08:33:06.251Z,64.10
2018-05-13T08:34:08.075Z,64.40
2018-05-13T08:35:09.151Z,64.50
2018-05-13T08:36:10.256Z,64.40
2018-05-13T08:37:11.373Z,64.40
2018-05-13T08:38:12.459Z,64.40
2018-05-13T08:39:13.542Z,64.60
2018-05-13T08:40:14.659Z,64.30
2018-05-13T08:41:15.747Z,64.10
2018-05-13T08:42:17.576Z,63.80
2018-05-13T08:43:18.691Z,63.80
2018-05-13T08:44:19.825Z,63.80
2018-05-13T08:45:20.911Z,63.80
2018-05-13T08:46:21.982Z,64.00
2018-05-13T08:47:23.038Z,63.70
2018-05-13T08:48:24.162Z,63.70
2018-05-13T08:49:25.924Z,64.00
2018-05-13T08:50:26.987Z,64.00
2018-05-13T08:51:28.082Z,64.20
2018-05-13T08:52:29.166Z,64.20
2018-05-13T08:53:30.272Z,64.30
2018-05-13T08:54:31.344Z,64.50
2018-05-13T08:55:32.416Z,64.30
2018-05-13T08:56:33.487Z,64.70
2018-05-13T08:57:34.546Z,64.80
2018-05-13T08:58:35.629Z,65.10
2018-05-13T08:59:37.520Z,65.20
2018-05-13T09:00:38.627Z,65.30
2018-05-13T09:01:39.835Z,65.30
2018-05-13T09:02:40.891Z,65.50
2018-05-13T09:03:42.718Z,65.60
2018-05-13T09:04:43.778Z,65.50
2018-05-13T09:05:45.576Z,65.90
2018-05-13T09:06:46.667Z,65.80
2018-05-13T09:07:47.759Z,66.20
2018-05-13T09:08:48.852Z,66.30
2018-05-13T09:09:49.922Z,66.00
2018-05-13T09:10:50.992Z,66.40
2018-05-13T09:11:52.064Z,66.20
2018-05-13T09:12:53.167Z,66.20
2018-05-13T09:13:54.264Z,66.20
2018-05-13T09:14:56.087Z,66.80
2018-05-13T09:15:57.209Z,66.40
2018-05-13T09:16:58.279Z,66.50
2018-05-13T09:17:59.351Z,66.90
2018-05-13T09:19:00.419Z,67.00
2018-05-13T09:20:01.520Z,66.80
2018-05-13T09:21:02.610Z,66.80
2018-05-13T09:22:03.703Z,66.80
2018-05-13T09:23:04.779Z,66.80
2018-05-13T09:24:06.583Z,66.80
2018-05-13T09:25:07.635Z,66.80
2018-05-13T09:26:08.711Z,66.80
2018-05-13T09:27:09.787Z,67.30
2018-05-13T09:28:10.867Z,67.00
2018-05-13T09:29:12.674Z,67.90
2018-05-13T09:30:13.740Z,67.80
2018-05-13T09:31:15.541Z,68.20
2018-05-13T09:32:16.631Z,68.20
2018-05-13T09:33:17.695Z,68.10
2018-05-13T09:34:18.791Z,68.30
2018-05-13T09:35:20.602Z,68.30
2018-05-13T09:36:21.676Z,68.20
2018-05-13T09:37:22.734Z,68.30
2018-05-13T09:38:23.842Z,68.40
2018-05-13T09:39:24.937Z,69.10
2018-05-13T09:40:25.976Z,68.70
2018-05-13T09:41:27.030Z,67.90
2018-05-13T09:42:28.856Z,68.20
2018-05-13T09:43:29.925Z,68.20
2018-05-13T09:44:30.997Z,67.90
2018-05-13T09:45:32.055Z,68.10
2018-05-13T09:46:33.142Z,68.40
2018-05-13T09:47:34.223Z,68.30
2018-05-13T09:48:35.332Z,68.70
2018-05-13T09:49:36.411Z,68.70
2018-05-13T09:50:38.211Z,69.00
2018-05-13T09:51:39.280Z,69.10
2018-05-13T09:52:41.086Z,68.90
2018-05-13T09:53:42.139Z,68.90
2018-05-13T09:54:43.210Z,68.60
2018-05-13T09:55:44.287Z,68.70
2018-05-13T09:56:45.340Z,68.60
2018-05-13T09:57:46.408Z,68.80
2018-05-13T09:58:47.475Z,68.90
2018-05-13T09:59:48.551Z,69.00
2018-05-13T10:01:58.171Z,69.10
2018-05-13T10:02:59.258Z,69.50
2018-05-13T10:04:00.421Z,69.60
2018-05-13T10:05:01.424Z,69.60
2018-05-13T10:06:02.500Z,69.90
2018-05-13T10:07:03.578Z,69.80
2018-05-13T10:08:04.689Z,70.20
2018-05-13T10:09:05.751Z,70.20
2018-05-13T10:10:06.834Z,70.40
2018-05-13T10:11:07.890Z,70.70
2018-05-13T10:12:09.955Z,70.70
2018-05-13T10:13:11.104Z,70.80
2018-05-13T10:14:12.178Z,70.70
2018-05-13T10:15:13.266Z,70.40
2018-05-13T10:16:14.371Z,71.00
2018-05-13T10:17:15.450Z,69.90
2018-05-13T10:18:16.515Z,70.20
2018-05-13T10:19:17.612Z,69.90
2018-05-13T10:20:18.695Z,69.60
2018-05-13T10:21:20.502Z,69.70
2018-05-13T10:22:21.585Z,69.80
2018-05-13T10:23:23.395Z,69.80
2018-05-13T10:24:24.491Z,70.00
2018-05-13T10:25:25.563Z,70.00
2018-05-13T10:26:27.536Z,69.70
2018-05-13T10:27:28.591Z,69.70
2018-05-13T10:28:29.659Z,69.50
2018-05-13T10:29:30.718Z,69.70
2018-05-13T10:30:31.811Z,69.50
2018-05-13T10:31:32.897Z,70.30
2018-05-13T10:32:33.956Z,69.30
2018-05-13T10:33:35.032Z,69.40
2018-05-13T10:34:36.111Z,69.10
2018-05-13T10:35:37.915Z,69.50
2018-05-13T10:36:38.980Z,69.50
2018-05-13T10:37:40.033Z,69.30
2018-05-13T10:38:41.091Z,69.20
2018-05-13T10:39:42.156Z,69.00
2018-05-13T10:40:43.240Z,68.80
2018-05-13T10:41:44.303Z,68.80
2018-05-13T10:42:45.388Z,69.00
2018-05-13T10:43:46.498Z,69.40
2018-05-13T10:44:48.315Z,69.60
2018-05-13T10:45:49.374Z,69.60
2018-05-13T10:46:50.448Z,70.10
2018-05-13T10:47:51.511Z,70.40
2018-05-13T10:48:52.567Z,70.20
2018-05-13T10:49:53.658Z,70.20
2018-05-13T10:50:55.480Z,70.10
2018-05-13T10:51:56.553Z,70.70
2018-05-13T10:52:57.641Z,69.90
2018-05-13T10:53:58.715Z,70.20
2018-05-13T10:54:59.771Z,70.30
2018-05-13T10:56:00.868Z,70.60
2018-05-13T10:57:01.924Z,70.40
2018-05-13T10:58:03.024Z,70.70
2018-05-13T10:59:04.082Z,70.70
2018-05-13T11:00:05.150Z,70.50
2018-05-13T11:01:06.970Z,69.80
2018-05-13T11:02:08.047Z,69.80
2018-05-13T11:03:09.115Z,69.60
2018-05-13T11:04:10.186Z,69.30
2018-05-13T11:05:12.004Z,69.10
2018-05-13T11:06:13.063Z,69.00
2018-05-13T11:07:14.143Z,69.00
2018-05-13T11:08:15.201Z,68.90
2018-05-13T11:09:16.299Z,69.00
2018-05-13T11:10:17.442Z,68.60
2018-05-13T11:11:18.460Z,68.70
2018-05-13T11:12:19.547Z,68.70
2018-05-13T11:13:21.392Z,69.10
2018-05-13T11:14:22.463Z,69.10
2018-05-13T11:15:24.263Z,69.00
2018-05-13T11:16:25.330Z,69.10
2018-05-13T11:17:27.139Z,69.70
2018-05-13T11:18:28.266Z,69.50
2018-05-13T11:19:30.013Z,69.70
2018-05-13T11:20:31.071Z,69.50
2018-05-13T11:21:32.162Z,70.00
2018-05-13T11:22:33.233Z,69.90
2018-05-13T11:23:34.311Z,69.80
2018-05-13T11:24:36.122Z,69.80
2018-05-13T11:25:37.184Z,69.80
2018-05-13T11:26:38.257Z,69.50
2018-05-13T11:27:39.344Z,69.60
2018-05-13T11:28:41.143Z,69.60
2018-05-13T11:29:42.251Z,69.70
2018-05-13T11:30:43.302Z,69.70
2018-05-13T11:31:44.366Z,69.60
2018-05-13T11:32:45.451Z,69.60
2018-05-13T11:33:46.570Z,69.40
2018-05-13T11:34:47.592Z,69.40
2018-05-13T11:35:49.390Z,69.10
2018-05-13T11:36:50.483Z,69.10
2018-05-13T11:37:51.596Z,68.70
2018-05-13T11:38:53.415Z,68.40
2018-05-13T11:39:54.575Z,68.30
2018-05-13T11:40:55.627Z,68.20
2018-05-13T11:41:56.711Z,68.20
2018-05-13T11:42:57.783Z,67.90
2018-05-13T11:43:58.864Z,67.90
2018-05-13T11:44:59.943Z,68.00
2018-05-13T11:46:01.027Z,68.00
2018-05-13T11:47:02.112Z,68.60
2018-05-13T11:48:03.956Z,67.80
2018-05-13T11:49:05.038Z,67.80
2018-05-13T11:50:06.117Z,67.90
2018-05-13T11:51:07.240Z,67.90
2018-05-13T11:52:08.331Z,68.00
2018-05-13T11:53:10.138Z,68.00
2018-05-13T11:54:11.207Z,67.90
2018-05-13T11:55:12.273Z,67.80
2018-05-13T11:56:13.354Z,68.30
2018-05-13T11:57:14.435Z,68.90
2018-05-13T11:58:15.496Z,68.20
2018-05-13T11:59:16.606Z,68.30
2018-05-13T12:00:17.680Z,68.30
2018-05-13T12:01:19.503Z,68.20
2018-05-13T12:02:20.712Z,68.20
2018-05-13T12:03:22.452Z,68.20
2018-05-13T12:04:23.526Z,68.20
2018-05-13T12:05:25.366Z,68.40
2018-05-13T12:06:26.438Z,68.40
2018-05-13T12:07:27.546Z,67.70
2018-05-13T12:08:29.356Z,67.20
2018-05-13T12:09:30.431Z,67.20
2018-05-13T12:10:32.236Z,67.10
2018-05-13T12:11:33.303Z,67.10
2018-05-13T12:12:35.101Z,67.80
2018-05-13T12:13:36.163Z,67.10
2018-05-13T12:14:37.218Z,67.00
2018-05-13T12:15:38.298Z,67.00
2018-05-13T12:16:39.359Z,66.70
2018-05-13T12:17:40.435Z,66.90
2018-05-13T12:18:41.488Z,67.00
2018-05-13T12:19:42.550Z,66.80
2018-05-13T12:20:43.639Z,67.00
2018-05-13T12:21:44.711Z,66.60
2018-05-13T12:22:45.800Z,66.60
2018-05-13T12:23:46.854Z,66.50
2018-05-13T12:24:47.936Z,66.40
2018-05-13T12:25:49.753Z,66.10
2018-05-13T12:26:50.841Z,66.20
2018-05-13T12:27:51.911Z,66.00
2018-05-13T12:28:53.057Z,65.70
2018-05-13T12:29:54.770Z,65.60
2018-05-13T12:30:55.830Z,65.60
2018-05-13T12:31:56.888Z,65.30
2018-05-13T12:32:58.720Z,65.20
2018-05-13T12:33:59.784Z,65.10
2018-05-13T12:35:00.856Z,65.20
2018-05-13T12:36:01.936Z,65.10
2018-05-13T12:37:03.020Z,64.30
2018-05-13T12:38:04.128Z,64.30
2018-05-13T12:39:05.915Z,64.40
2018-05-13T12:40:06.992Z,64.40
2018-05-13T12:41:08.795Z,64.90
2018-05-13T12:42:09.883Z,64.90
2018-05-13T12:43:10.948Z,64.70
2018-05-13T12:44:12.024Z,65.00
2018-05-13T12:45:13.842Z,64.70
2018-05-13T12:46:14.932Z,64.70
2018-05-13T12:47:15.992Z,64.40
2018-05-13T12:48:17.099Z,64.60
2018-05-13T12:49:18.159Z,64.40
2018-05-13T12:50:19.258Z,64.10
2018-05-13T12:51:20.319Z,64.00
2018-05-13T12:52:21.407Z,64.30
2018-05-13T12:53:23.218Z,64.00
2018-05-13T12:54:24.286Z,63.80
2018-05-13T12:55:26.079Z,64.10
2018-05-13T12:56:27.143Z,64.10
2018-05-13T12:57:28.209Z,64.20
2018-05-13T12:58:29.358Z,64.60
2018-05-13T12:59:30.394Z,64.50
2018-05-13T13:00:31.474Z,64.30
2018-05-13T13:01:32.572Z,64.20
2018-05-13T13:02:33.668Z,63.80
2018-05-13T13:03:34.756Z,63.40
2018-05-13T13:04:35.815Z,63.20
2018-05-13T13:05:36.904Z,63.30
2018-05-13T13:06:37.967Z,62.90
2018-05-13T13:07:39.128Z,62.50
2018-05-13T13:08:40.181Z,62.20
2018-05-13T13:09:41.231Z,62.00
2018-05-13T13:10:42.324Z,61.60